Time;durP1;ratioP1;P1;durP2;ratioP2;P2;SDS_P1;SDS_P2;PMS_P1;PMS_P2;Temp;Humidity;BMP_temperature;BMP_pressure;BME280_temperature;BME280_humidity;BME280_pressure;Samples;Min_cycle;Max_cycle;Signal;HPM_P1;HPM_P2
2021/08/23 00:00:50;;;;;;;5.32;4.10;;;;;;;;;;4443681;32;20338;-54
2021/08/23 00:03:16;;;;;;;5.10;4.20;;;;;;;;;;4444619;32;20212;-55
2021/08/23 00:05:41;;;;;;;6.43;4.65;;;;;;;;;;4447289;32;20275;-55
2021/08/23 00:08:06;;;;;;;4.30;3.70;;;;;;;;;;4445884;32;20209;-54
2021/08/23 00:10:32;;;;;;;4.57;3.72;;;;;;;;;;4446558;32;20260;-55
2021/08/23 00:12:57;;;;;;;4.50;3.92;;;;;;;;;;4442366;32;20786;-55
2021/08/23 00:15:23;;;;;;;7.30;4.70;;;;;;;;;;4441167;32;20360;-55
2021/08/23 00:17:48;;;;;;;7.28;3.92;;;;;;;;;;4438422;32;20264;-55
2021/08/23 00:20:16;;;;;;;6.72;5.37;;;;;;;;;;4443483;32;20256;-56
2021/08/23 00:22:48;;;;;;;5.75;4.30;;;;;;;;;;4451774;32;20678;-55
2021/08/23 00:25:16;;;;;;;9.55;6.95;;;;;;;;;;4458918;32;20205;-56
2021/08/23 00:27:41;;;;;;;9.02;7.40;;;;;;;;;;4460802;32;20287;-55
2021/08/23 00:30:08;;;;;;;8.85;7.00;;;;;;;;;;4455238;32;20604;-55
2021/08/23 00:32:34;;;;;;;7.65;5.82;;;;;;;;;;4459260;32;20282;-55
2021/08/23 00:35:00;;;;;;;7.40;5.78;;;;;;;;;;4448390;32;20248;-56
2021/08/23 00:37:25;;;;;;;8.07;4.70;;;;;;;;;;4453305;32;20271;-57
2021/08/23 00:39:51;;;;;;;5.20;4.30;;;;;;;;;;4455832;32;20319;-55
2021/08/23 00:42:17;;;;;;;5.30;4.05;;;;;;;;;;4456344;32;20282;-55
2021/08/23 00:44:43;;;;;;;5.37;3.50;;;;;;;;;;4455198;32;20347;-55
2021/08/23 00:47:09;;;;;;;5.72;3.97;;;;;;;;;;4458757;32;20267;-55
2021/08/23 00:49:35;;;;;;;5.12;4.03;;;;;;;;;;4455655;32;20740;-55
2021/08/23 00:52:01;;;;;;;4.18;3.65;;;;;;;;;;4458445;32;20373;-56
2021/08/23 00:54:27;;;;;;;4.45;3.80;;;;;;;;;;4449829;32;20351;-55
2021/08/23 00:56:53;;;;;;;5.70;4.43;;;;;;;;;;4460189;32;20672;-56
2021/08/23 00:59:20;;;;;;;8.88;4.60;;;;;;;;;;4461172;32;20315;-55
2021/08/23 01:02:04;;;;;;;4.30;3.60;;;;;;;;;;4456329;32;20279;-55
2021/08/23 01:04:39;;;;;;;6.85;4.65;;;;;;;;;;4456262;32;20259;-56
2021/08/23 01:07:08;;;;;;;4.97;3.53;;;;;;;;;;4451194;32;20283;-55
2021/08/23 01:09:38;;;;;;;5.50;3.70;;;;;;;;;;4446258;32;20624;-55
2021/08/23 01:12:04;;;;;;;5.70;3.75;;;;;;;;;;4452317;32;20267;-55
2021/08/23 01:14:30;;;;;;;7.50;3.92;;;;;;;;;;4450482;32;20252;-55
2021/08/23 01:16:56;;;;;;;4.97;3.35;;;;;;;;;;4456846;32;20294;-56
2021/08/23 01:19:22;;;;;;;4.45;3.80;;;;;;;;;;4453980;32;20229;-55
2021/08/23 01:21:51;;;;;;;6.07;4.07;;;;;;;;;;4461508;32;20334;-54
2021/08/23 01:24:17;;;;;;;5.78;3.53;;;;;;;;;;4452942;32;20245;-55
2021/08/23 01:26:46;;;;;;;6.65;4.22;;;;;;;;;;4460396;32;20204;-55
2021/08/23 01:29:26;;;;;;;10.57;7.55;;;;;;;;;;4453290;32;20236;-55
2021/08/23 01:32:22;;;;;;;22.60;15.93;;;;;;;;;;4459086;32;20216;-55
2021/08/23 01:34:49;;;;;;;18.17;13.80;;;;;;;;;;4453534;32;20316;-55
2021/08/23 01:37:16;;;;;;;21.00;15.30;;;;;;;;;;4461782;32;20239;-56
2021/08/23 01:39:42;;;;;;;13.13;10.60;;;;;;;;;;4465443;32;20258;-56
2021/08/23 01:42:08;;;;;;;11.73;9.48;;;;;;;;;;4463150;32;20264;-56
2021/08/23 01:44:34;;;;;;;8.18;6.75;;;;;;;;;;4459352;32;20637;-56
2021/08/23 01:46:59;;;;;;;4.40;4.00;;;;;;;;;;4452406;32;20387;-57
2021/08/23 01:49:25;;;;;;;6.15;4.65;;;;;;;;;;4455090;32;20236;-55
2021/08/23 01:51:51;;;;;;;6.12;3.72;;;;;;;;;;4458574;32;20393;-56
2021/08/23 01:54:18;;;;;;;5.50;4.43;;;;;;;;;;4464352;32;20311;-55
2021/08/23 01:56:44;;;;;;;5.22;3.62;;;;;;;;;;4450613;32;20207;-55
2021/08/23 01:59:09;;;;;;;4.22;3.35;;;;;;;;;;4458403;32;20442;-56
2021/08/23 02:01:35;;;;;;;9.52;3.40;;;;;;;;;;4457822;32;20280;-56
2021/08/23 02:04:00;;;;;;;4.62;3.60;;;;;;;;;;4459638;32;20435;-56
2021/08/23 02:06:26;;;;;;;5.32;4.00;;;;;;;;;;4453274;32;20217;-56
2021/08/23 02:08:52;;;;;;;4.90;3.95;;;;;;;;;;4454601;32;20300;-56
2021/08/23 02:11:18;;;;;;;9.07;3.80;;;;;;;;;;4455015;32;20259;-57
2021/08/23 02:13:44;;;;;;;5.45;4.57;;;;;;;;;;4456909;32;20262;-56
2021/08/23 02:16:09;;;;;;;6.97;4.10;;;;;;;;;;4455980;32;20204;-56
2021/08/23 02:18:35;;;;;;;5.65;4.32;;;;;;;;;;4463097;32;20266;-56
2021/08/23 02:21:01;;;;;;;6.10;4.35;;;;;;;;;;4460370;32;20224;-56
2021/08/23 02:23:26;;;;;;;6.37;4.22;;;;;;;;;;4461799;32;20298;-56
2021/08/23 02:25:53;;;;;;;9.88;4.70;;;;;;;;;;4459854;32;20326;-56
2021/08/23 02:28:19;;;;;;;5.55;3.85;;;;;;;;;;4460710;32;20362;-56
2021/08/23 02:30:44;;;;;;;7.70;4.12;;;;;;;;;;4450946;32;20286;-56
2021/08/23 02:33:10;;;;;;;7.85;3.97;;;;;;;;;;4460139;32;20224;-57
2021/08/23 02:35:35;;;;;;;5.18;3.83;;;;;;;;;;4456156;32;20299;-57
2021/08/23 02:38:01;;;;;;;5.28;4.15;;;;;;;;;;4461755;32;20414;-57
2021/08/23 02:40:26;;;;;;;6.12;3.92;;;;;;;;;;4463870;32;20362;-60
2021/08/23 02:42:51;;;;;;;6.07;4.12;;;;;;;;;;4460145;32;20212;-58
2021/08/23 02:45:17;;;;;;;8.00;4.55;;;;;;;;;;4460715;32;20224;-57
2021/08/23 02:47:42;;;;;;;6.25;4.28;;;;;;;;;;4456719;32;20347;-57
2021/08/23 02:50:09;;;;;;;7.40;4.00;;;;;;;;;;4452655;32;20656;-57
2021/08/23 02:52:35;;;;;;;5.75;4.25;;;;;;;;;;4460559;32;20208;-57
2021/08/23 02:55:02;;;;;;;5.87;4.70;;;;;;;;;;4460631;32;20735;-57
2021/08/23 02:57:28;;;;;;;5.22;4.18;;;;;;;;;;4463452;32;20678;-56
2021/08/23 02:59:53;;;;;;;7.90;4.37;;;;;;;;;;4461096;32;20243;-56
2021/08/23 03:02:19;;;;;;;5.85;4.00;;;;;;;;;;4459469;32;20295;-55
2021/08/23 03:04:44;;;;;;;8.10;4.97;;;;;;;;;;4450800;32;20701;-55
2021/08/23 03:07:10;;;;;;;7.03;4.90;;;;;;;;;;4458101;32;20306;-55
2021/08/23 03:09:35;;;;;;;5.75;3.78;;;;;;;;;;4452510;32;20292;-55
2021/08/23 03:12:01;;;;;;;7.60;4.55;;;;;;;;;;4456719;32;20691;-55
2021/08/23 03:14:26;;;;;;;11.12;4.35;;;;;;;;;;4459783;32;20243;-54
2021/08/23 03:16:52;;;;;;;6.47;4.28;;;;;;;;;;4456622;32;20279;-55
2021/08/23 03:19:17;;;;;;;5.80;3.90;;;;;;;;;;4456753;32;20628;-55
2021/08/23 03:21:42;;;;;;;8.63;4.22;;;;;;;;;;4452735;32;20221;-56
2021/08/23 03:24:08;;;;;;;5.43;3.75;;;;;;;;;;4462412;32;20275;-54
2021/08/23 03:26:34;;;;;;;6.10;3.75;;;;;;;;;;4454122;32;20334;-56
2021/08/23 03:28:59;;;;;;;7.82;4.43;;;;;;;;;;4459065;32;20241;-54
2021/08/23 03:31:25;;;;;;;8.82;4.53;;;;;;;;;;4454847;32;20279;-55
2021/08/23 03:33:50;;;;;;;7.95;6.62;;;;;;;;;;4453489;32;20346;-55
2021/08/23 03:36:16;;;;;;;12.63;9.90;;;;;;;;;;4458628;32;20367;-55
2021/08/23 03:38:42;;;;;;;11.55;9.43;;;;;;;;;;4461878;32;20216;-55
2021/08/23 03:41:10;;;;;;;11.50;9.07;;;;;;;;;;4463722;32;20242;-55
2021/08/23 03:43:35;;;;;;;12.43;7.43;;;;;;;;;;4456611;32;20247;-55
2021/08/23 03:46:01;;;;;;;6.82;6.12;;;;;;;;;;4458351;32;20619;-56
2021/08/23 03:48:26;;;;;;;7.43;5.70;;;;;;;;;;4461669;32;20216;-54
2021/08/23 03:50:52;;;;;;;8.05;6.68;;;;;;;;;;4457557;32;20299;-55
2021/08/23 03:53:17;;;;;;;6.37;5.30;;;;;;;;;;4453977;32;20247;-55
2021/08/23 03:55:43;;;;;;;14.18;5.00;;;;;;;;;;4450265;32;20307;-56
2021/08/23 03:58:08;;;;;;;9.60;5.28;;;;;;;;;;4461492;32;20266;-56
2021/08/23 04:00:34;;;;;;;8.77;4.60;;;;;;;;;;4450607;32;20204;-56
2021/08/23 04:02:59;;;;;;;9.00;4.97;;;;;;;;;;4462654;32;20611;-55
2021/08/23 04:05:24;;;;;;;6.65;4.65;;;;;;;;;;4455848;32;20271;-55
2021/08/23 04:07:50;;;;;;;9.88;5.15;;;;;;;;;;4459057;32;20290;-56
2021/08/23 04:10:15;;;;;;;16.83;4.90;;;;;;;;;;4458846;32;20291;-55
2021/08/23 04:12:41;;;;;;;8.98;5.20;;;;;;;;;;4455357;32;20250;-56
2021/08/23 04:15:07;;;;;;;7.03;4.78;;;;;;;;;;4458627;32;20240;-56
2021/08/23 04:17:32;;;;;;;7.28;5.20;;;;;;;;;;4457027;32;20810;-57
2021/08/23 04:20:01;;;;;;;10.13;5.53;;;;;;;;;;4453087;32;20277;-56
2021/08/23 04:22:26;;;;;;;7.32;5.00;;;;;;;;;;4461440;32;20247;-56
2021/08/23 04:24:52;;;;;;;6.75;5.72;;;;;;;;;;4457906;32;20511;-56
2021/08/23 04:27:17;;;;;;;12.70;6.55;;;;;;;;;;4453665;32;20317;-56
2021/08/23 04:29:43;;;;;;;10.10;6.90;;;;;;;;;;4455537;32;20726;-57
2021/08/23 04:32:09;;;;;;;11.52;6.50;;;;;;;;;;4459849;32;20295;-58
2021/08/23 04:34:35;;;;;;;7.03;6.03;;;;;;;;;;4450229;32;20347;-56
2021/08/23 04:37:03;;;;;;;11.05;7.97;;;;;;;;;;4455611;32;20794;-58
2021/08/23 04:39:31;;;;;;;16.33;8.02;;;;;;;;;;4462028;32;20266;-56
2021/08/23 04:41:56;;;;;;;16.17;9.13;;;;;;;;;;4461863;32;20359;-57
2021/08/23 04:44:22;;;;;;;11.02;8.80;;;;;;;;;;4451410;32;20268;-56
2021/08/23 04:46:50;;;;;;;8.00;6.78;;;;;;;;;;4461688;32;20287;-56
2021/08/23 04:49:19;;;;;;;8.55;6.28;;;;;;;;;;4454368;32;20228;-55
2021/08/23 04:51:44;;;;;;;9.35;6.43;;;;;;;;;;4454964;32;20259;-55
2021/08/23 04:54:10;;;;;;;9.65;6.82;;;;;;;;;;4462151;32;20636;-55
2021/08/23 04:56:35;;;;;;;6.95;5.20;;;;;;;;;;4447999;32;20310;-54
2021/08/23 04:59:02;;;;;;;6.60;4.60;;;;;;;;;;4450954;32;20295;-55
2021/08/23 05:01:27;;;;;;;9.75;6.15;;;;;;;;;;4449556;32;20314;-55
2021/08/23 05:03:53;;;;;;;9.23;6.40;;;;;;;;;;4461750;32;20204;-55
2021/08/23 05:06:18;;;;;;;7.80;4.78;;;;;;;;;;4449906;32;20224;-54
2021/08/23 05:08:44;;;;;;;10.77;6.45;;;;;;;;;;4456341;32;20268;-56
2021/08/23 05:11:09;;;;;;;7.05;5.50;;;;;;;;;;4457945;32;20666;-56
2021/08/23 05:13:35;;;;;;;11.70;5.65;;;;;;;;;;4460485;32;20529;-56
2021/08/23 05:16:01;;;;;;;10.60;5.18;;;;;;;;;;4454729;32;20311;-56
2021/08/23 05:18:26;;;;;;;6.85;5.50;;;;;;;;;;4452848;32;20246;-56
2021/08/23 05:20:52;;;;;;;8.45;5.90;;;;;;;;;;4459218;32;20200;-56
2021/08/23 05:23:17;;;;;;;6.87;5.32;;;;;;;;;;4455904;32;20725;-56
2021/08/23 05:25:43;;;;;;;15.70;7.50;;;;;;;;;;4450230;32;20280;-57
2021/08/23 05:28:09;;;;;;;8.52;6.43;;;;;;;;;;4456370;32;20228;-55
2021/08/23 05:30:34;;;;;;;10.48;6.53;;;;;;;;;;4449182;32;20329;-56
2021/08/23 05:33:00;;;;;;;15.27;6.82;;;;;;;;;;4450544;32;20367;-55
2021/08/23 05:35:26;;;;;;;12.93;7.40;;;;;;;;;;4449085;32;20779;-55
2021/08/23 05:37:51;;;;;;;11.93;6.47;;;;;;;;;;4449903;32;20278;-55
2021/08/23 05:40:19;;;;;;;13.43;6.28;;;;;;;;;;4458775;32;20235;-55
2021/08/23 05:42:45;;;;;;;7.05;4.85;;;;;;;;;;4458823;32;20239;-56
2021/08/23 05:45:10;;;;;;;11.30;6.40;;;;;;;;;;4454824;32;21031;-55
2021/08/23 05:47:37;;;;;;;9.70;5.47;;;;;;;;;;4455900;32;20817;-56
2021/08/23 05:50:03;;;;;;;7.62;5.65;;;;;;;;;;4458889;32;20745;-55
2021/08/23 05:52:29;;;;;;;7.15;5.10;;;;;;;;;;4456543;32;20848;-55
2021/08/23 05:54:54;;;;;;;6.65;5.80;;;;;;;;;;4448913;32;20291;-56
2021/08/23 05:57:21;;;;;;;12.27;6.25;;;;;;;;;;4453768;32;20896;-55
2021/08/23 05:59:46;;;;;;;8.68;5.75;;;;;;;;;;4457067;32;20247;-55
2021/08/23 06:02:12;;;;;;;8.35;6.03;;;;;;;;;;4458491;32;20350;-55
2021/08/23 06:04:37;;;;;;;8.18;6.93;;;;;;;;;;4460051;32;20235;-55
2021/08/23 06:07:06;;;;;;;8.88;5.93;;;;;;;;;;4454602;32;20284;-55
2021/08/23 06:09:33;;;;;;;6.97;5.68;;;;;;;;;;4451546;32;20778;-56
2021/08/23 06:11:58;;;;;;;8.32;5.60;;;;;;;;;;4458485;32;20596;-56
2021/08/23 06:14:24;;;;;;;6.53;5.50;;;;;;;;;;4454295;32;20272;-55
2021/08/23 06:16:50;;;;;;;6.93;5.12;;;;;;;;;;4451523;32;20447;-56
2021/08/23 06:19:15;;;;;;;5.82;4.78;;;;;;;;;;4458242;32;20683;-54
2021/08/23 06:21:41;;;;;;;6.15;5.18;;;;;;;;;;4458030;32;20311;-55
2021/08/23 06:24:06;;;;;;;18.02;5.75;;;;;;;;;;4461254;32;20243;-55
2021/08/23 06:26:32;;;;;;;9.93;5.75;;;;;;;;;;4454725;32;20251;-57
2021/08/23 06:28:57;;;;;;;15.07;5.35;;;;;;;;;;4455514;32;20232;-58
2021/08/23 06:31:23;;;;;;;15.85;5.28;;;;;;;;;;4455565;32;20784;-57
2021/08/23 06:33:49;;;;;;;9.82;5.30;;;;;;;;;;4454466;32;20328;-55
2021/08/23 06:36:15;;;;;;;8.43;6.18;;;;;;;;;;4452156;32;20806;-54
2021/08/23 06:38:40;;;;;;;6.87;5.00;;;;;;;;;;4453569;32;20825;-54
2021/08/23 06:41:06;;;;;;;10.50;5.18;;;;;;;;;;4452673;32;20295;-54
2021/08/23 06:43:31;;;;;;;10.70;5.55;;;;;;;;;;4456858;32;20212;-54
2021/08/23 06:45:57;;;;;;;8.57;4.80;;;;;;;;;;4457876;32;20235;-54
2021/08/23 06:48:22;;;;;;;7.03;4.85;;;;;;;;;;4463008;32;20236;-56
2021/08/23 06:50:48;;;;;;;6.65;4.85;;;;;;;;;;4455967;32;20294;-55
2021/08/23 06:53:14;;;;;;;8.48;5.50;;;;;;;;;;4464071;32;20208;-55
2021/08/23 06:55:39;;;;;;;9.65;6.30;;;;;;;;;;4463838;32;20251;-54
2021/08/23 06:58:05;;;;;;;9.77;4.87;;;;;;;;;;4453480;32;20270;-54
2021/08/23 07:00:30;;;;;;;6.50;4.62;;;;;;;;;;4461437;32;20311;-56
2021/08/23 07:02:56;;;;;;;7.45;4.93;;;;;;;;;;4461484;32;20316;-54
2021/08/23 07:05:22;;;;;;;5.87;4.50;;;;;;;;;;4452401;32;20254;-54
2021/08/23 07:07:48;;;;;;;6.25;5.00;;;;;;;;;;4463888;32;20685;-55
2021/08/23 07:10:14;;;;;;;8.27;5.32;;;;;;;;;;4459385;32;20228;-54
2021/08/23 07:12:40;;;;;;;7.65;4.55;;;;;;;;;;4459415;32;20374;-56
2021/08/23 07:15:06;;;;;;;7.10;5.12;;;;;;;;;;4451718;32;20317;-55
2021/08/23 07:17:32;;;;;;;6.57;5.10;;;;;;;;;;4450839;32;20284;-56
2021/08/23 07:19:58;;;;;;;6.37;4.53;;;;;;;;;;4455313;32;20223;-55
2021/08/23 07:22:23;;;;;;;5.72;4.62;;;;;;;;;;4447883;32;20259;-55
2021/08/23 07:24:49;;;;;;;6.30;5.07;;;;;;;;;;4462155;32;20236;-55
2021/08/23 07:27:15;;;;;;;7.68;4.47;;;;;;;;;;4451807;32;20706;-56
2021/08/23 07:29:40;;;;;;;8.32;4.85;;;;;;;;;;4453642;32;20801;-55
2021/08/23 07:32:06;;;;;;;6.05;4.70;;;;;;;;;;4440417;32;20514;-57
2021/08/23 07:34:32;;;;;;;7.12;4.43;;;;;;;;;;4462630;32;20236;-54
2021/08/23 07:36:57;;;;;;;6.90;4.93;;;;;;;;;;4459150;32;20634;-56
2021/08/23 07:39:23;;;;;;;7.50;5.43;;;;;;;;;;4463035;32;20247;-57
2021/08/23 07:41:50;;;;;;;11.50;5.05;;;;;;;;;;4458692;32;20718;-56
2021/08/23 07:44:15;;;;;;;4.93;3.95;;;;;;;;;;4449752;32;20254;-56
2021/08/23 07:46:40;;;;;;;8.32;4.55;;;;;;;;;;4459804;32;20306;-56
2021/08/23 07:49:06;;;;;;;8.43;4.70;;;;;;;;;;4451354;32;20244;-55
2021/08/23 07:51:32;;;;;;;7.60;4.53;;;;;;;;;;4458750;32;20359;-55
2021/08/23 07:53:57;;;;;;;6.05;5.03;;;;;;;;;;4463603;32;20239;-54
2021/08/23 07:56:23;;;;;;;8.77;5.00;;;;;;;;;;4460766;32;20351;-54
2021/08/23 07:58:48;;;;;;;7.07;5.18;;;;;;;;;;4463099;32;20303;-54
2021/08/23 08:01:14;;;;;;;6.68;4.95;;;;;;;;;;4462893;32;20486;-55
2021/08/23 08:03:39;;;;;;;7.03;5.28;;;;;;;;;;4451972;32;20258;-54
2021/08/23 08:06:05;;;;;;;6.12;5.32;;;;;;;;;;4455969;32;20326;-55
2021/08/23 08:08:31;;;;;;;8.88;5.32;;;;;;;;;;4449931;32;20871;-54
2021/08/23 08:10:57;;;;;;;7.78;5.22;;;;;;;;;;4449895;32;20306;-55
2021/08/23 08:13:23;;;;;;;11.88;6.57;;;;;;;;;;4451334;32;20331;-57
2021/08/23 08:15:48;;;;;;;11.98;6.10;;;;;;;;;;4459791;32;20407;-55
2021/08/23 08:18:14;;;;;;;18.27;6.25;;;;;;;;;;4453424;32;20244;-55
2021/08/23 08:20:39;;;;;;;11.05;6.28;;;;;;;;;;4458795;32;20358;-57
2021/08/23 08:23:05;;;;;;;8.35;5.22;;;;;;;;;;4460528;32;20243;-55
2021/08/23 08:25:30;;;;;;;11.00;7.00;;;;;;;;;;4452340;32;20307;-55
2021/08/23 08:27:56;;;;;;;7.20;5.45;;;;;;;;;;4460497;32;20321;-55
2021/08/23 08:30:22;;;;;;;8.32;6.03;;;;;;;;;;4446318;32;20343;-55
2021/08/23 08:32:48;;;;;;;8.68;5.93;;;;;;;;;;4458837;32;20287;-55
2021/08/23 08:35:14;;;;;;;7.50;5.57;;;;;;;;;;4449178;32;20446;-55
2021/08/23 08:37:40;;;;;;;11.40;5.60;;;;;;;;;;4450612;32;20365;-56
2021/08/23 08:40:07;;;;;;;10.57;6.37;;;;;;;;;;4453034;32;20263;-55
2021/08/23 08:42:32;;;;;;;6.72;5.32;;;;;;;;;;4455078;32;20291;-55
2021/08/23 08:44:58;;;;;;;8.80;5.75;;;;;;;;;;4456992;32;20253;-55
2021/08/23 08:47:23;;;;;;;8.48;6.15;;;;;;;;;;4454195;32;20284;-57
2021/08/23 08:49:51;;;;;;;6.53;5.85;;;;;;;;;;4458421;32;20515;-56
2021/08/23 08:52:17;;;;;;;11.43;5.90;;;;;;;;;;4451041;32;20273;-56
2021/08/23 08:54:44;;;;;;;10.00;5.65;;;;;;;;;;4448165;32;20299;-55
2021/08/23 08:57:10;;;;;;;11.18;7.05;;;;;;;;;;4461132;32;20237;-55
2021/08/23 08:59:36;;;;;;;7.22;5.65;;;;;;;;;;4449764;32;20306;-55
2021/08/23 09:02:02;;;;;;;6.05;4.87;;;;;;;;;;4458362;32;20687;-54
2021/08/23 09:04:31;;;;;;;8.57;4.90;;;;;;;;;;4453910;32;20224;-55
2021/08/23 09:07:00;;;;;;;8.93;6.03;;;;;;;;;;4463220;32;20235;-55
2021/08/23 09:09:27;;;;;;;6.90;5.65;;;;;;;;;;4447367;32;20300;-55
2021/08/23 09:12:07;;;;;;;6.65;5.47;;;;;;;;;;4460563;32;20603;-55
2021/08/23 09:14:36;;;;;;;11.48;6.05;;;;;;;;;;4455193;32;20698;-56
2021/08/23 09:17:09;;;;;;;8.63;5.57;;;;;;;;;;4460941;32;20303;-56
2021/08/23 09:19:36;;;;;;;6.60;5.30;;;;;;;;;;4455955;32;20219;-55
2021/08/23 09:22:24;;;;;;;7.53;5.28;;;;;;;;;;4446990;32;20252;-55
2021/08/23 09:24:50;;;;;;;5.78;5.15;;;;;;;;;;4442707;32;20653;-56
2021/08/23 09:27:15;;;;;;;8.60;6.30;;;;;;;;;;4461004;32;20345;-58
2021/08/23 09:29:48;;;;;;;10.75;6.72;;;;;;;;;;4453478;32;20648;-56
2021/08/23 09:32:18;;;;;;;9.00;4.87;;;;;;;;;;4454336;32;20247;-55
2021/08/23 09:34:45;;;;;;;6.62;5.47;;;;;;;;;;4458278;32;20309;-56
2021/08/23 09:37:25;;;;;;;7.65;5.82;;;;;;;;;;4459211;32;20279;-56
2021/08/23 09:39:51;;;;;;;11.07;5.82;;;;;;;;;;4457524;32;20647;-56
2021/08/23 09:42:24;;;;;;;6.65;4.47;;;;;;;;;;4452384;32;20329;-56
2021/08/23 09:44:51;;;;;;;7.45;5.37;;;;;;;;;;4460179;32;20284;-56
2021/08/23 09:47:17;;;;;;;6.80;5.68;;;;;;;;;;4461828;32;20228;-56
2021/08/23 09:49:45;;;;;;;10.88;5.82;;;;;;;;;;4456890;32;20248;-56
2021/08/23 09:52:14;;;;;;;10.82;6.25;;;;;;;;;;4461337;32;20365;-56
2021/08/23 09:54:39;;;;;;;14.55;6.80;;;;;;;;;;4455780;32;20236;-56
2021/08/23 09:57:06;;;;;;;7.75;5.07;;;;;;;;;;4464641;32;20778;-56
2021/08/23 09:59:37;;;;;;;7.80;5.65;;;;;;;;;;4459815;32;20359;-56
2021/08/23 10:02:03;;;;;;;8.93;6.15;;;;;;;;;;4458148;32;20504;-56
2021/08/23 10:04:30;;;;;;;11.15;5.90;;;;;;;;;;4462481;32;20237;-57
2021/08/23 10:06:56;;;;;;;8.25;5.57;;;;;;;;;;4460292;32;20257;-56
2021/08/23 10:09:24;;;;;;;6.32;5.57;;;;;;;;;;4458036;32;20320;-57
2021/08/23 10:11:52;;;;;;;9.45;6.03;;;;;;;;;;4455906;32;20255;-57
2021/08/23 10:14:18;;;;;;;6.18;5.37;;;;;;;;;;4461397;32;20280;-57
2021/08/23 10:16:44;;;;;;;6.05;4.50;;;;;;;;;;4455588;32;20398;-57
2021/08/23 10:19:10;;;;;;;7.93;5.07;;;;;;;;;;4452645;32;20279;-56
2021/08/23 10:21:37;;;;;;;7.15;4.55;;;;;;;;;;4457558;32;20283;-56
2021/08/23 10:24:04;;;;;;;5.80;4.68;;;;;;;;;;4454652;32;20329;-57
2021/08/23 10:26:45;;;;;;;8.57;5.47;;;;;;;;;;4448964;32;20248;-56
2021/08/23 10:29:14;;;;;;;9.00;5.55;;;;;;;;;;4455723;32;20327;-55
2021/08/23 10:31:41;;;;;;;8.50;5.68;;;;;;;;;;4457292;32;20244;-56
2021/08/23 10:34:16;;;;;;;10.88;5.35;;;;;;;;;;4457130;32;20339;-56
2021/08/23 10:36:43;;;;;;;6.85;4.93;;;;;;;;;;4461011;32;20334;-56
2021/08/23 10:39:08;;;;;;;11.00;4.45;;;;;;;;;;4461516;32;20244;-57
2021/08/23 10:41:34;;;;;;;6.10;4.43;;;;;;;;;;4462712;32;20282;-59
2021/08/23 10:44:01;;;;;;;7.20;4.90;;;;;;;;;;4463120;32;20208;-57
2021/08/23 10:46:29;;;;;;;6.90;4.53;;;;;;;;;;4456885;32;20224;-58
2021/08/23 10:48:59;;;;;;;5.65;4.90;;;;;;;;;;4456405;32;20262;-56
2021/08/23 10:51:33;;;;;;;5.45;4.68;;;;;;;;;;4458765;32;20219;-58
2021/08/23 10:54:00;;;;;;;6.45;4.93;;;;;;;;;;4462053;32;20256;-57
2021/08/23 10:56:37;;;;;;;4.47;4.07;;;;;;;;;;4452606;32;20609;-57
2021/08/23 10:59:14;;;;;;;5.22;4.72;;;;;;;;;;4457349;32;20381;-57
2021/08/23 11:01:52;;;;;;;7.00;5.10;;;;;;;;;;4460053;32;20219;-57
2021/08/23 11:04:29;;;;;;;5.80;4.37;;;;;;;;;;4461389;32;20274;-57
2021/08/23 11:06:54;;;;;;;7.03;4.32;;;;;;;;;;4459427;32;20297;-56
2021/08/23 11:09:32;;;;;;;6.87;4.65;;;;;;;;;;4452571;32;20322;-56
2021/08/23 11:12:13;;;;;;;5.22;4.37;;;;;;;;;;4456073;32;20323;-57
2021/08/23 11:14:44;;;;;;;5.72;4.45;;;;;;;;;;4458703;32;20298;-57
2021/08/23 11:17:10;;;;;;;6.75;4.85;;;;;;;;;;4453940;32;20576;-56
2021/08/23 11:19:40;;;;;;;6.18;4.72;;;;;;;;;;4460017;32;20219;-58
2021/08/23 11:22:06;;;;;;;5.32;3.62;;;;;;;;;;4454814;32;20502;-57
2021/08/23 11:24:34;;;;;;;3.72;3.05;;;;;;;;;;4454009;32;20293;-58
2021/08/23 11:27:02;;;;;;;5.85;3.65;;;;;;;;;;4458905;32;20326;-58
2021/08/23 11:29:28;;;;;;;7.57;3.58;;;;;;;;;;4460821;32;20299;-58
2021/08/23 11:32:03;;;;;;;4.07;3.65;;;;;;;;;;4457907;32;20260;-57
2021/08/23 11:34:29;;;;;;;5.75;4.45;;;;;;;;;;4457248;32;20275;-58
2021/08/23 11:37:04;;;;;;;4.97;3.55;;;;;;;;;;4460191;32;20290;-56
2021/08/23 11:39:31;;;;;;;5.80;3.97;;;;;;;;;;4463320;32;20277;-56
2021/08/23 11:42:05;;;;;;;3.83;3.17;;;;;;;;;;4452246;32;20280;-56
2021/08/23 11:44:32;;;;;;;7.10;3.92;;;;;;;;;;4456078;32;20596;-56
2021/08/23 11:47:03;;;;;;;5.65;3.28;;;;;;;;;;4460039;32;20280;-56
2021/08/23 11:49:30;;;;;;;3.80;3.35;;;;;;;;;;4457127;32;20236;-56
2021/08/23 11:51:56;;;;;;;4.30;3.30;;;;;;;;;;4454729;32;20295;-56
2021/08/23 11:54:22;;;;;;;4.20;3.22;;;;;;;;;;4458387;32;20258;-56
2021/08/23 11:56:47;;;;;;;4.60;3.72;;;;;;;;;;4455931;32;20298;-57
2021/08/23 11:59:13;;;;;;;4.25;3.42;;;;;;;;;;4459408;32;20238;-56
2021/08/23 12:01:39;;;;;;;5.30;3.70;;;;;;;;;;4454146;32;20200;-56
2021/08/23 12:04:05;;;;;;;6.12;4.50;;;;;;;;;;4459071;32;20295;-57
2021/08/23 12:06:34;;;;;;;4.43;4.03;;;;;;;;;;4461353;32;20315;-58
2021/08/23 12:09:01;;;;;;;5.78;3.67;;;;;;;;;;4461461;32;20211;-56
2021/08/23 12:11:27;;;;;;;7.35;3.83;;;;;;;;;;4463876;32;20248;-57
2021/08/23 12:13:53;;;;;;;4.50;3.90;;;;;;;;;;4464905;32;20215;-56
2021/08/23 12:16:31;;;;;;;5.15;3.95;;;;;;;;;;4453146;32;20335;-56
2021/08/23 12:19:06;;;;;;;6.55;4.18;;;;;;;;;;4459538;32;20667;-55
2021/08/23 12:21:32;;;;;;;7.28;3.90;;;;;;;;;;4452613;32;20337;-55
2021/08/23 12:23:58;;;;;;;7.37;4.40;;;;;;;;;;4461326;32;20239;-55
2021/08/23 12:26:39;;;;;;;7.07;3.95;;;;;;;;;;4451506;32;20699;-55
2021/08/23 12:29:10;;;;;;;5.93;4.00;;;;;;;;;;4449340;32;20346;-56
2021/08/23 12:31:39;;;;;;;4.50;4.00;;;;;;;;;;4451874;32;20323;-56
2021/08/23 12:34:16;;;;;;;3.95;3.53;;;;;;;;;;4451948;32;20231;-56
2021/08/23 12:36:45;;;;;;;4.00;3.60;;;;;;;;;;4458459;32;20303;-56
2021/08/23 12:39:12;;;;;;;6.30;4.28;;;;;;;;;;4462553;32;20287;-55
2021/08/23 12:41:46;;;;;;;5.00;3.95;;;;;;;;;;4460059;32;20266;-57
2021/08/23 12:44:12;;;;;;;5.97;3.62;;;;;;;;;;4458547;32;20310;-55
2021/08/23 12:46:37;;;;;;;5.60;4.15;;;;;;;;;;4459334;32;20382;-56
2021/08/23 12:49:03;;;;;;;5.78;3.92;;;;;;;;;;4462627;32;20314;-56
2021/08/23 12:51:29;;;;;;;4.18;3.33;;;;;;;;;;4461665;32;20313;-57
2021/08/23 12:53:55;;;;;;;4.82;3.92;;;;;;;;;;4456384;32;20319;-56
2021/08/23 12:56:21;;;;;;;7.00;4.53;;;;;;;;;;4449346;32;20371;-58
2021/08/23 12:58:47;;;;;;;6.65;4.15;;;;;;;;;;4459522;32;20220;-56
2021/08/23 13:01:13;;;;;;;5.75;3.50;;;;;;;;;;4454640;32;20269;-57
2021/08/23 13:03:40;;;;;;;4.62;4.07;;;;;;;;;;4461608;32;20284;-56
2021/08/23 13:06:06;;;;;;;4.47;4.07;;;;;;;;;;4462708;32;20213;-57
2021/08/23 13:08:31;;;;;;;6.82;4.28;;;;;;;;;;4451317;32;20272;-56
2021/08/23 13:10:57;;;;;;;6.97;4.07;;;;;;;;;;4463055;32;20719;-58
2021/08/23 13:13:23;;;;;;;10.23;4.55;;;;;;;;;;4460435;32;20773;-57
2021/08/23 13:15:49;;;;;;;4.82;4.03;;;;;;;;;;4456433;32;20365;-56
2021/08/23 13:18:14;;;;;;;6.28;3.97;;;;;;;;;;4460962;32;20281;-57
2021/08/23 13:20:40;;;;;;;6.87;4.37;;;;;;;;;;4456790;32;20736;-59
2021/08/23 13:23:07;;;;;;;4.90;3.85;;;;;;;;;;4455006;32;20231;-57
2021/08/23 13:25:33;;;;;;;5.72;4.22;;;;;;;;;;4459902;32;20295;-57
2021/08/23 13:27:59;;;;;;;5.70;4.20;;;;;;;;;;4458850;32;20346;-57
2021/08/23 13:30:25;;;;;;;4.15;3.75;;;;;;;;;;4457446;32;20248;-57
2021/08/23 13:32:50;;;;;;;5.12;3.97;;;;;;;;;;4458215;32;20683;-57
2021/08/23 13:35:16;;;;;;;5.87;4.37;;;;;;;;;;4462148;32;20292;-57
2021/08/23 13:37:41;;;;;;;5.65;4.15;;;;;;;;;;4463171;32;20220;-56
2021/08/23 13:40:08;;;;;;;5.60;4.55;;;;;;;;;;4460010;32;20267;-56
2021/08/23 13:42:36;;;;;;;4.82;3.80;;;;;;;;;;4462320;32;20341;-57
2021/08/23 13:45:05;;;;;;;5.68;4.05;;;;;;;;;;4456610;32;20229;-56
2021/08/23 13:47:31;;;;;;;5.10;3.62;;;;;;;;;;4457099;32;20470;-56
2021/08/23 13:49:56;;;;;;;4.57;4.10;;;;;;;;;;4459833;32;20270;-56
2021/08/23 13:52:23;;;;;;;5.85;4.18;;;;;;;;;;4457703;32;20519;-56
2021/08/23 13:54:48;;;;;;;5.95;4.55;;;;;;;;;;4460350;32;20526;-57
2021/08/23 13:57:14;;;;;;;6.05;4.18;;;;;;;;;;4456464;32;20278;-56
2021/08/23 13:59:39;;;;;;;5.55;4.60;;;;;;;;;;4460476;32;20247;-55
2021/08/23 14:02:05;;;;;;;5.82;4.22;;;;;;;;;;4455188;32;20343;-55
2021/08/23 14:04:33;;;;;;;6.28;4.95;;;;;;;;;;4447842;32;20805;-56
2021/08/23 14:07:00;;;;;;;6.05;4.10;;;;;;;;;;4455064;32;20228;-56
2021/08/23 14:09:25;;;;;;;7.78;5.10;;;;;;;;;;4457183;32;20277;-56
2021/08/23 14:11:51;;;;;;;4.45;3.90;;;;;;;;;;4462751;32;20326;-57
2021/08/23 14:14:16;;;;;;;12.55;9.32;;;;;;;;;;4448709;32;20623;-56
2021/08/23 14:16:42;;;;;;;11.52;8.40;;;;;;;;;;4452112;32;20275;-59
2021/08/23 14:19:08;;;;;;;12.55;6.37;;;;;;;;;;4459583;32;20330;-56
2021/08/23 14:21:34;;;;;;;6.37;4.57;;;;;;;;;;4452440;32;20272;-56
2021/08/23 14:24:00;;;;;;;4.87;4.37;;;;;;;;;;4457392;32;20239;-56
2021/08/23 14:26:25;;;;;;;8.05;4.75;;;;;;;;;;4451550;32;20757;-55
2021/08/23 14:28:50;;;;;;;7.15;4.57;;;;;;;;;;4460295;32;20391;-56
2021/08/23 14:31:16;;;;;;;4.35;3.83;;;;;;;;;;4458133;32;20734;-56
2021/08/23 14:33:42;;;;;;;6.43;4.12;;;;;;;;;;4457275;32;20262;-56
2021/08/23 14:36:07;;;;;;;4.47;3.87;;;;;;;;;;4460747;32;20313;-56
2021/08/23 14:38:33;;;;;;;6.12;4.53;;;;;;;;;;4454349;32;20319;-56